Time;durP1;ratioP1;P1;durP2;ratioP2;P2;SDS_P1;SDS_P2;PMS_P1;PMS_P2;Temp;Humidity;BMP_temperature;BMP_pressure;BME280_temperature;BME280_humidity;BME280_pressure;Samples;Min_cycle;Max_cycle;Signal;HPM_P1;HPM_P2
2023/04/11 00:00:51;;;;;;;;;;;;;;;8.85;83.29;100773.59;4955539;28;19962;-73
2023/04/11 00:03:18;;;;;;;;;;;;;;;8.79;83.84;100763.94;4974330;28;19948;-73
2023/04/11 00:05:44;;;;;;;;;;;;;;;8.80;84.00;100759.41;4958577;28;20041;-71
2023/04/11 00:08:10;;;;;;;;;;;;;;;8.73;84.63;100760.44;4951805;28;19932;-72
2023/04/11 00:10:36;;;;;;;;;;;;;;;8.69;84.91;100750.53;4957411;28;19945;-72
2023/04/11 00:13:01;;;;;;;;;;;;;;;8.64;85.56;100743.28;4934384;28;20426;-72
2023/04/11 00:15:27;;;;;;;;;;;;;;;8.64;85.52;100742.47;4973096;28;19985;-72
2023/04/11 00:17:53;;;;;;;;;;;;;;;8.64;85.33;100745.16;4957789;28;20012;-73
2023/04/11 00:20:19;;;;;;;;;;;;;;;8.60;85.54;100752.06;4958738;28;19939;-71
2023/04/11 00:22:45;;;;;;;;;;;;;;;8.60;86.16;100744.88;4955685;28;19949;-73
2023/04/11 00:25:11;;;;;;;;;;;;;;;8.60;85.72;100733.38;4959770;28;20315;-72
2023/04/11 00:27:36;;;;;;;;;;;;;;;8.60;86.21;100739.53;4964298;28;19959;-73
2023/04/11 00:30:04;;;;;;;;;;;;;;;8.60;86.08;100733.38;4967231;28;19949;-72
2023/04/11 00:32:29;;;;;;;;;;;;;;;8.68;85.88;100735.59;4958716;28;19964;-70
2023/04/11 00:34:55;;;;;;;;;;;;;;;8.61;86.34;100737.66;4949306;28;20032;-72
2023/04/11 00:37:21;;;;;;;;;;;;;;;8.61;86.25;100735.81;4952160;28;20592;-73
2023/04/11 00:39:49;;;;;;;;;;;;;;;8.56;86.99;100737.63;4932210;28;19937;-72
2023/04/11 00:42:21;;;;;;;;;;;;;;;8.59;86.83;100742.44;4932756;28;20051;-73
2023/04/11 00:44:47;;;;;;;;;;;;;;;8.50;87.50;100738.66;4945031;28;20404;-71
2023/04/11 00:47:14;;;;;;;;;;;;;;;8.50;87.83;100725.31;4973556;28;19959;-74
2023/04/11 00:49:40;;;;;;;;;;;;;;;8.49;87.81;100711.16;4944991;28;19939;-72
2023/04/11 00:52:06;;;;;;;;;;;;;;;8.45;88.27;100708.19;4952397;28;19961;-72
2023/04/11 00:54:31;;;;;;;;;;;;;;;8.41;88.57;100701.75;4950220;28;20328;-71
2023/04/11 00:56:58;;;;;;;;;;;;;;;8.45;88.05;100708.19;4972257;28;19969;-72
2023/04/11 00:59:25;;;;;;;;;;;;;;;8.43;88.39;100712.97;4954954;28;20416;-74
2023/04/11 01:01:51;;;;;;;;;;;;;;;8.33;88.99;100704.03;4940768;28;19938;-74
2023/04/11 01:04:20;;;;;;;;;;;;;;;8.34;88.38;100709.16;4954296;28;19999;-72
2023/04/11 01:06:48;;;;;;;;;;;;;;;8.34;88.43;100695.81;4971061;28;20324;-72
2023/04/11 01:09:14;;;;;;;;;;;;;;;8.35;88.30;100700.13;4931239;28;20282;-73
2023/04/11 01:11:41;;;;;;;;;;;;;;;8.30;88.23;100676.03;4958470;28;19947;-71
2023/04/11 01:14:07;;;;;;;;;;;;;;;8.30;88.04;100692.03;4943719;28;20441;-72
2023/04/11 01:16:35;;;;;;;;;;;;;;;8.31;88.25;100688.28;4945341;28;19941;-72
2023/04/11 01:19:02;;;;;;;;;;;;;;;8.29;88.57;100687.75;4958839;28;19943;-72
2023/04/11 01:21:28;;;;;;;;;;;;;;;8.28;88.58;100688.03;4957316;28;19941;-72
2023/04/11 01:23:55;;;;;;;;;;;;;;;8.28;88.59;100688.81;4956817;28;19959;-71
2023/04/11 01:26:21;;;;;;;;;;;;;;;8.26;88.32;100679.44;4945517;28;19962;-72
2023/04/11 01:28:47;;;;;;;;;;;;;;;8.26;88.16;100669.56;4954957;28;19949;-72
2023/04/11 01:31:12;;;;;;;;;;;;;;;8.23;88.86;100675.44;4940810;28;19934;-72
2023/04/11 01:33:38;;;;;;;;;;;;;;;8.24;88.43;100671.69;4957173;28;19956;-74
2023/04/11 01:36:04;;;;;;;;;;;;;;;8.29;87.97;100670.94;4936422;28;19944;-73
2023/04/11 01:38:29;;;;;;;;;;;;;;;8.22;87.87;100673.84;4951703;28;19939;-72
2023/04/11 01:40:56;;;;;;;;;;;;;;;8.23;88.20;100685.31;4947667;28;20000;-72
2023/04/11 01:43:21;;;;;;;;;;;;;;;8.20;88.00;100675.97;4961730;28;19956;-74
2023/04/11 01:45:49;;;;;;;;;;;;;;;8.23;87.71;100685.31;4953464;28;19942;-73
2023/04/11 01:48:15;;;;;;;;;;;;;;;8.25;87.01;100683.97;4953896;28;20428;-73
2023/04/11 01:50:41;;;;;;;;;;;;;;;8.27;86.72;100678.41;4942666;28;19943;-72
2023/04/11 01:53:06;;;;;;;;;;;;;;;8.22;87.22;100673.84;4939571;28;19958;-75
2023/04/11 01:55:32;;;;;;;;;;;;;;;8.25;86.49;100683.97;4960242;28;20018;-72
2023/04/11 01:57:57;;;;;;;;;;;;;;;8.25;86.58;100678.66;4957428;28;20042;-72
2023/04/11 02:00:23;;;;;;;;;;;;;;;8.23;86.47;100678.09;4956914;28;19938;-70
2023/04/11 02:02:50;;;;;;;;;;;;;;;8.25;85.99;100677.84;4945042;28;19955;-72
2023/04/11 02:05:16;;;;;;;;;;;;;;;8.20;86.29;100662.63;4932223;28;19942;-75
2023/04/11 02:07:45;;;;;;;;;;;;;;;8.16;86.72;100677.50;4963412;28;20350;-74
2023/04/11 02:10:16;;;;;;;;;;;;;;;8.15;86.95;100682.06;4955224;28;20027;-73
2023/04/11 02:12:41;;;;;;;;;;;;;;;8.18;86.42;100668.19;4961361;28;20065;-72
2023/04/11 02:15:07;;;;;;;;;;;;;;;8.18;86.16;100668.19;4955248;28;20024;-72
2023/04/11 02:17:33;;;;;;;;;;;;;;;8.16;86.25;100674.84;4942686;28;19937;-73
2023/04/11 02:19:58;;;;;;;;;;;;;;;8.07;87.16;100671.06;4969962;28;19992;-73
2023/04/11 02:22:24;;;;;;;;;;;;;;;7.94;87.42;100672.28;4950472;28;19936;-71
2023/04/11 02:24:52;;;;;;;;;;;;;;;7.96;86.98;100650.69;4962631;28;19935;-72
2023/04/11 02:27:17;;;;;;;;;;;;;;;7.91;87.47;100654.91;4962324;28;20018;-74
2023/04/11 02:29:43;;;;;;;;;;;;;;;7.88;87.28;100655.41;4960859;28;20337;-73
2023/04/11 02:32:09;;;;;;;;;;;;;;;7.84;87.13;100638.31;4954608;28;19941;-72
2023/04/11 02:34:34;;;;;;;;;;;;;;;7.81;87.42;100628.16;4940002;28;19976;-73
2023/04/11 02:37:01;;;;;;;;;;;;;;;7.81;87.98;100636.16;4962472;28;19944;-73
2023/04/11 02:39:27;;;;;;;;;;;;;;;7.77;87.37;100629.72;4963696;28;20324;-72
2023/04/11 02:41:54;;;;;;;;;;;;;;;7.76;87.34;100625.44;4955311;28;19944;-73
2023/04/11 02:44:21;;;;;;;;;;;;;;;7.76;87.13;100628.13;4974456;28;20447;-73
2023/04/11 02:46:47;;;;;;;;;;;;;;;7.77;87.48;100615.59;4963178;28;19958;-72
2023/04/11 02:49:12;;;;;;;;;;;;;;;7.79;86.75;100611.63;4941947;28;19943;-72
2023/04/11 02:51:38;;;;;;;;;;;;;;;7.77;87.27;100607.59;4938833;28;20009;-73
2023/04/11 02:54:05;;;;;;;;;;;;;;;7.78;87.08;100610.00;4947379;28;20461;-72
2023/04/11 02:56:37;;;;;;;;;;;;;;;7.76;87.38;100622.78;4966465;28;19992;-72
2023/04/11 02:59:06;;;;;;;;;;;;;;;7.80;87.08;100637.22;4952946;28;19937;-72
2023/04/11 03:01:32;;;;;;;;;;;;;;;7.85;86.72;100637.25;4975784;28;20388;-73
2023/04/11 03:03:58;;;;;;;;;;;;;;;7.83;87.42;100628.72;4947770;28;19967;-74
2023/04/11 03:06:30;;;;;;;;;;;;;;;7.91;86.50;100636.22;4965258;28;20052;-72
2023/04/11 03:08:58;;;;;;;;;;;;;;;7.96;86.78;100624.81;4945510;28;19940;-73
2023/04/11 03:11:24;;;;;;;;;;;;;;;7.82;84.72;100620.97;4964556;28;19942;-72
2023/04/11 03:13:50;;;;;;;;;;;;;;;7.45;83.26;100604.88;4965122;28;20410;-75
2023/04/11 03:16:16;;;;;;;;;;;;;;;7.05;84.64;100604.25;4958978;28;19947;-73
2023/04/11 03:18:41;;;;;;;;;;;;;;;7.00;84.82;100582.06;4979030;28;19946;-73
2023/04/11 03:21:10;;;;;;;;;;;;;;;6.84;85.22;100587.22;4945230;28;20436;-74
2023/04/11 03:23:38;;;;;;;;;;;;;;;6.82;86.83;100585.84;4950436;28;20522;-74
2023/04/11 03:26:04;;;;;;;;;;;;;;;6.80;86.13;100591.44;4943589;28;19952;-74
2023/04/11 03:28:31;;;;;;;;;;;;;;;6.76;86.26;100602.81;4957447;28;19958;-73
2023/04/11 03:30:56;;;;;;;;;;;;;;;6.62;86.08;100601.56;4933555;28;20020;-73
2023/04/11 03:33:23;;;;;;;;;;;;;;;6.53;86.52;100598.53;4957138;28;19953;-73
2023/04/11 03:35:49;;;;;;;;;;;;;;;6.49;86.36;100624.81;4921417;29;19939;-73
2023/04/11 03:38:14;;;;;;;;;;;;;;;6.48;85.45;100625.06;4944563;28;19939;-73
2023/04/11 03:40:40;;;;;;;;;;;;;;;6.53;85.40;100633.13;4974683;28;19939;-73
2023/04/11 03:43:12;;;;;;;;;;;;;;;6.72;83.43;100633.66;4946937;28;20325;-73
2023/04/11 03:45:38;;;;;;;;;;;;;;;6.67;83.46;100623.72;4960415;28;20449;-73
2023/04/11 03:48:10;;;;;;;;;;;;;;;6.69;84.23;100632.25;4956440;28;20328;-74
2023/04/11 03:50:50;;;;;;;;;;;;;;;6.57;84.46;100623.59;4957914;28;19970;-75
2023/04/11 03:53:19;;;;;;;;;;;;;;;6.58;85.01;100627.88;4959891;28;19955;-73
2023/04/11 03:55:51;;;;;;;;;;;;;;;6.65;84.02;100630.38;4943167;28;19995;-72
2023/04/11 03:58:18;;;;;;;;;;;;;;;6.63;84.49;100630.59;4946430;28;19945;-73
2023/04/11 04:00:45;;;;;;;;;;;;;;;6.60;84.40;100631.09;4948750;28;19934;-73
2023/04/11 04:03:12;;;;;;;;;;;;;;;6.64;84.29;100632.22;4944088;28;20653;-72
2023/04/11 04:05:39;;;;;;;;;;;;;;;6.51;85.27;100640.56;4936673;28;19949;-73
2023/04/11 04:08:05;;;;;;;;;;;;;;;6.47;85.45;100634.91;4959435;28;19963;-72
2023/04/11 04:10:46;;;;;;;;;;;;;;;6.50;84.23;100630.94;4950141;28;19941;-72
2023/04/11 04:13:13;;;;;;;;;;;;;;;6.54;84.46;100634.72;4928102;28;22112;-72
2023/04/11 04:15:51;;;;;;;;;;;;;;;6.51;84.63;100637.88;4961409;28;19941;-73
2023/04/11 04:18:21;;;;;;;;;;;;;;;6.41;85.15;100640.41;4976740;28;19941;-72
2023/04/11 04:20:47;;;;;;;;;;;;;;;6.34;85.21;100635.25;4946231;28;20023;-71
2023/04/11 04:23:16;;;;;;;;;;;;;;;6.39;85.32;100632.66;4942144;28;19960;-72
2023/04/11 04:25:57;;;;;;;;;;;;;;;6.39;84.84;100635.31;4929209;28;19973;-72
2023/04/11 04:28:24;;;;;;;;;;;;;;;6.42;84.12;100636.69;4963186;28;19939;-72
2023/04/11 04:30:52;;;;;;;;;;;;;;;6.45;83.69;100639.66;4946145;28;19938;-73
2023/04/11 04:33:21;;;;;;;;;;;;;;;6.34;84.46;100632.59;4942867;28;19954;-72
2023/04/11 04:35:56;;;;;;;;;;;;;;;6.35;84.07;100649.34;4972889;28;20023;-72
2023/04/11 04:38:24;;;;;;;;;;;;;;;6.35;83.92;100644.03;4962771;28;19932;-73
2023/04/11 04:40:53;;;;;;;;;;;;;;;6.24;83.40;100646.53;4959978;28;20302;-73
2023/04/11 04:43:22;;;;;;;;;;;;;;;6.13;84.02;100642.09;4940951;28;19973;-73
2023/04/11 04:46:07;;;;;;;;;;;;;;;6.22;84.10;100648.63;4959392;28;19947;-73
2023/04/11 04:48:40;;;;;;;;;;;;;;;6.08;84.52;100652.66;4944855;28;19943;-72
2023/04/11 04:51:06;;;;;;;;;;;;;;;6.17;83.68;100645.91;4938182;28;19941;-72
2023/04/11 04:53:37;;;;;;;;;;;;;;;6.06;84.44;100646.78;4942261;28;19956;-73
2023/04/11 04:56:04;;;;;;;;;;;;;;;6.11;84.89;100654.84;4957864;28;20000;-73
2023/04/11 04:58:34;;;;;;;;;;;;;;;6.21;83.91;100649.69;4941298;28;20152;-73
2023/04/11 05:01:02;;;;;;;;;;;;;;;6.16;83.52;100657.56;4925328;28;20063;-73
2023/04/11 05:03:33;;;;;;;;;;;;;;;6.08;84.25;100650.00;4959334;28;19959;-73
2023/04/11 05:05:59;;;;;;;;;;;;;;;6.17;84.18;100656.53;4947656;28;20462;-72
2023/04/11 05:08:26;;;;;;;;;;;;;;;6.22;84.17;100656.59;4960212;28;19941;-72
2023/04/11 05:10:53;;;;;;;;;;;;;;;6.34;84.09;100658.38;4977540;28;19936;-74
2023/04/11 05:13:20;;;;;;;;;;;;;;;6.34;83.31;100658.38;4944690;28;20309;-72
2023/04/11 05:15:50;;;;;;;;;;;;;;;6.35;82.84;100657.31;4960874;28;19946;-73
2023/04/11 05:18:16;;;;;;;;;;;;;;;6.28;83.41;100657.50;4948206;28;19946;-72
2023/04/11 05:20:42;;;;;;;;;;;;;;;6.19;83.09;100657.09;4949206;29;19936;-72
2023/04/11 05:23:11;;;;;;;;;;;;;;;6.25;84.58;100653.47;4966478;28;19956;-72
2023/04/11 05:25:39;;;;;;;;;;;;;;;6.14;84.70;100658.88;4966993;28;20361;-72
2023/04/11 05:28:08;;;;;;;;;;;;;;;6.16;84.80;100662.06;4966449;28;19981;-71
2023/04/11 05:30:34;;;;;;;;;;;;;;;6.10;84.11;100663.06;4943528;28;20423;-72
2023/04/11 05:33:00;;;;;;;;;;;;;;;6.15;83.88;100663.13;4950894;28;20040;-72
2023/04/11 05:35:26;;;;;;;;;;;;;;;6.09;84.67;100666.75;4945652;28;19936;-72
2023/04/11 05:37:53;;;;;;;;;;;;;;;6.01;84.61;100675.94;4947681;28;19936;-72
2023/04/11 05:40:19;;;;;;;;;;;;;;;5.92;85.62;100672.88;4948472;28;19952;-72
2023/04/11 05:42:44;;;;;;;;;;;;;;;6.00;85.40;100675.13;4940590;28;19942;-72
2023/04/11 05:45:10;;;;;;;;;;;;;;;6.05;84.97;100676.28;4959986;28;20219;-72
2023/04/11 05:47:35;;;;;;;;;;;;;;;5.99;85.48;100678.03;4959545;28;19955;-72
2023/04/11 05:50:02;;;;;;;;;;;;;;;6.00;85.45;100679.66;4946642;28;19936;-72
2023/04/11 05:52:28;;;;;;;;;;;;;;;6.08;85.55;100689.88;4932657;28;19953;-72
2023/04/11 05:54:56;;;;;;;;;;;;;;;6.12;84.93;100679.59;4949088;28;19938;-73
2023/04/11 05:57:22;;;;;;;;;;;;;;;6.30;84.92;100674.03;4962499;28;19946;-72
2023/04/11 05:59:48;;;;;;;;;;;;;;;6.44;83.26;100685.16;4963514;28;20484;-72
2023/04/11 06:02:14;;;;;;;;;;;;;;;6.59;82.44;100677.38;4957355;28;20298;-73
2023/04/11 06:04:40;;;;;;;;;;;;;;;6.87;82.51;100675.63;4970506;28;20332;-74
2023/04/11 06:07:06;;;;;;;;;;;;;;;7.13;82.85;100682.88;4957250;28;19981;-72
2023/04/11 06:09:31;;;;;;;;;;;;;;;7.17;82.32;100681.31;4947357;28;20416;-72
2023/04/11 06:11:57;;;;;;;;;;;;;;;7.05;81.72;100686.00;4962274;28;19971;-72
2023/04/11 06:14:25;;;;;;;;;;;;;;;7.05;81.59;100686.78;4957063;28;19957;-73
2023/04/11 06:16:51;;;;;;;;;;;;;;;7.03;82.31;100688.06;4964789;28;19942;-72
2023/04/11 06:19:16;;;;;;;;;;;;;;;7.10;81.85;100683.38;4983394;28;19960;-72
2023/04/11 06:21:42;;;;;;;;;;;;;;;7.20;81.06;100688.81;4967396;28;20499;-73
2023/04/11 06:24:08;;;;;;;;;;;;;;;7.28;80.74;100683.06;4965053;28;19952;-72
2023/04/11 06:26:34;;;;;;;;;;;;;;;7.25;81.31;100688.09;4961731;28;19981;-72
2023/04/11 06:29:02;;;;;;;;;;;;;;;7.28;80.93;100683.06;4962492;28;20037;-72
2023/04/11 06:31:28;;;;;;;;;;;;;;;7.28;81.50;100680.41;4955357;28;19939;-71
2023/04/11 06:33:54;;;;;;;;;;;;;;;7.26;80.85;100692.38;4957503;28;19956;-72
2023/04/11 06:36:20;;;;;;;;;;;;;;;7.30;81.29;100682.81;4966378;28;20020;-73
2023/04/11 06:38:45;;;;;;;;;;;;;;;7.35;81.44;100686.34;4961015;28;20422;-73
2023/04/11 06:41:11;;;;;;;;;;;;;;;7.26;81.50;100687.03;4957133;28;19955;-72
2023/04/11 06:43:36;;;;;;;;;;;;;;;7.19;81.28;100689.88;4963905;28;19958;-73
2023/04/11 06:46:02;;;;;;;;;;;;;;;7.14;81.54;100689.00;4934358;28;19932;-73
2023/04/11 06:48:27;;;;;;;;;;;;;;;7.21;81.49;100685.09;4968083;28;20026;-73
2023/04/11 06:50:53;;;;;;;;;;;;;;;7.23;81.43;100683.00;4963627;28;20002;-72
2023/04/11 06:53:19;;;;;;;;;;;;;;;7.29;81.72;100692.66;4965284;28;20436;-72
2023/04/11 06:55:48;;;;;;;;;;;;;;;7.19;80.79;100692.56;4946379;28;19938;-72
2023/04/11 06:58:14;;;;;;;;;;;;;;;7.31;81.48;100685.22;4959492;28;19971;-72
2023/04/11 07:00:39;;;;;;;;;;;;;;;7.16;80.33;100690.38;4961297;28;20382;-73
2023/04/11 07:03:07;;;;;;;;;;;;;;;7.00;80.86;100689.38;4966248;28;20380;-72
2023/04/11 07:05:35;;;;;;;;;;;;;;;7.10;80.69;100699.34;4963991;28;19940;-72
2023/04/11 07:08:01;;;;;;;;;;;;;;;7.24;80.82;100694.44;4948441;28;20503;-72
2023/04/11 07:10:26;;;;;;;;;;;;;;;7.42;79.29;100704.78;4961895;28;19937;-73
2023/04/11 07:12:51;;;;;;;;;;;;;;;7.70;79.82;100698.44;4971584;28;20012;-73
2023/04/11 07:15:17;;;;;;;;;;;;;;;7.49;78.18;100697.41;4946556;28;19991;-71
2023/04/11 07:17:42;;;;;;;;;;;;;;;6.98;78.06;100717.31;4957265;28;19962;-73
2023/04/11 07:20:08;;;;;;;;;;;;;;;6.61;81.71;100725.84;4945513;28;20333;-73
2023/04/11 07:22:35;;;;;;;;;;;;;;;6.45;81.59;100734.63;4978021;28;19938;-72
2023/04/11 07:25:04;;;;;;;;;;;;;;;6.13;81.54;100748.47;4949429;28;19940;-71
2023/04/11 07:27:31;;;;;;;;;;;;;;;5.92;81.33;100746.50;4978543;28;19948;-74
2023/04/11 07:29:56;;;;;;;;;;;;;;;5.78;83.30;100747.81;4955986;28;19974;-72
2023/04/11 07:32:22;;;;;;;;;;;;;;;5.64;84.15;100750.75;4957317;28;20075;-74
2023/04/11 07:34:47;;;;;;;;;;;;;;;5.50;85.41;100757.38;4961859;28;20039;-74
2023/04/11 07:37:13;;;;;;;;;;;;;;;5.49;86.54;100758.41;4947807;28;19935;-72
2023/04/11 07:39:39;;;;;;;;;;;;;;;5.59;87.47;100763.91;4946770;28;19949;-74
2023/04/11 07:42:05;;;;;;;;;;;;;;;5.67;87.70;100758.22;4960376;28;19940;-74
2023/04/11 07:44:30;;;;;;;;;;;;;;;5.75;86.52;100751.72;4960331;28;20316;-73
2023/04/11 07:46:56;;;;;;;;;;;;;;;5.68;86.21;100756.38;4963532;28;19953;-73
2023/04/11 07:49:22;;;;;;;;;;;;;;;5.73;86.55;100759.13;4958876;28;20283;-74
2023/04/11 07:51:47;;;;;;;;;;;;;;;5.68;86.46;100762.50;4975517;28;19975;-73
2023/04/11 07:54:13;;;;;;;;;;;;;;;5.79;86.76;100763.50;4963391;28;19959;-73
2023/04/11 07:56:38;;;;;;;;;;;;;;;5.85;87.27;100772.38;4946695;28;19941;-72
2023/04/11 07:59:07;;;;;;;;;;;;;;;5.93;87.24;100775.50;4955810;28;19994;-74
2023/04/11 08:01:32;;;;;;;;;;;;;;;5.99;87.66;100769.22;4954621;28;19939;-72
2023/04/11 08:03:58;;;;;;;;;;;;;;;5.95;87.46;100778.72;4956554;28;19985;-73
2023/04/11 08:06:25;;;;;;;;;;;;;;;5.92;88.19;100781.84;4961203;28;19971;-73
2023/04/11 08:08:51;;;;;;;;;;;;;;;5.86;88.38;100789.94;4959007;28;20669;-74
2023/04/11 08:11:16;;;;;;;;;;;;;;;5.78;89.03;100787.66;4936837;28;19991;-74
2023/04/11 08:13:42;;;;;;;;;;;;;;;5.76;88.58;100795.88;4951833;28;20013;-73
2023/04/11 08:16:09;;;;;;;;;;;;;;;5.74;88.50;100793.44;4942008;28;19959;-72
2023/04/11 08:18:36;;;;;;;;;;;;;;;5.71;88.81;100791.25;4979509;28;20334;-72
2023/04/11 08:21:02;;;;;;;;;;;;;;;5.76;88.63;100795.88;4966931;28;19941;-73
2023/04/11 08:23:28;;;;;;;;;;;;;;;5.80;88.17;100798.84;4956697;28;19990;-72
2023/04/11 08:25:54;;;;;;;;;;;;;;;5.84;88.93;100800.00;4963367;28;20037;-73
2023/04/11 08:28:20;;;;;;;;;;;;;;;5.97;88.63;100791.78;4950306;28;19964;-72
2023/04/11 08:30:46;;;;;;;;;;;;;;;6.11;88.85;100792.31;4937615;28;19944;-73
2023/04/11 08:33:19;;;;;;;;;;;;;;;6.06;87.59;100793.00;4940921;28;19989;-71
2023/04/11 08:35:44;;;;;;;;;;;;;;;6.33;87.92;100795.06;4961576;28;19938;-73
2023/04/11 08:38:10;;;;;;;;;;;;;;;6.35;88.46;100798.28;4972214;28;19935;-72
2023/04/11 08:40:35;;;;;;;;;;;;;;;6.48;87.76;100808.63;4957249;28;19964;-72
2023/04/11 08:43:01;;;;;;;;;;;;;;;6.55;87.95;100809.28;4966085;28;19989;-72
2023/04/11 08:45:26;;;;;;;;;;;;;;;6.66;88.70;100800.44;4944622;28;19953;-73
2023/04/11 08:47:52;;;;;;;;;;;;;;;6.98;87.58;100792.66;4961575;28;20070;-72
2023/04/11 08:50:17;;;;;;;;;;;;;;;7.00;87.18;100806.53;4959163;28;19935;-74
2023/04/11 08:52:43;;;;;;;;;;;;;;;6.99;86.66;100801.47;4943957;28;20043;-72
2023/04/11 08:55:09;;;;;;;;;;;;;;;7.02;87.45;100808.94;4964487;28;19940;-73
2023/04/11 08:57:37;;;;;;;;;;;;;;;7.02;86.89;100803.63;4967851;28;20338;-74
2023/04/11 09:00:10;;;;;;;;;;;;;;;7.05;87.16;100800.50;4965231;28;20040;-74
2023/04/11 09:02:56;;;;;;;;;;;;;;;7.17;86.69;100801.16;4934059;28;20578;-73
2023/04/11 09:05:41;;;;;;;;;;;;;;;7.36;87.61;100805.16;4946557;28;19942;-74
2023/04/11 09:08:08;;;;;;;;;;;;;;;7.73;86.30;100801.91;4975147;28;20008;-74
2023/04/11 09:10:34;;;;;;;;;;;;;;;7.83;86.20;100804.69;4947765;28;20032;-72
2023/04/11 09:13:01;;;;;;;;;;;;;;;7.99;86.68;100804.84;4964747;28;19958;-72
2023/04/11 09:15:28;;;;;;;;;;;;;;;8.20;85.46;100796.81;4983326;28;19992;-72
2023/04/11 09:17:55;;;;;;;;;;;;;;;8.25;83.94;100782.69;4949561;28;20048;-73
2023/04/11 09:20:30;;;;;;;;;;;;;;;8.41;84.02;100791.69;4947835;28;19984;-73
2023/04/11 09:22:57;;;;;;;;;;;;;;;8.77;83.38;100776.75;4938654;28;19956;-73
2023/04/11 09:25:23;;;;;;;;;;;;;;;9.14;83.70;100786.59;4959800;28;20454;-72
2023/04/11 09:27:49;;;;;;;;;;;;;;;9.33;82.00;100779.75;4968627;28;19961;-73
2023/04/11 09:30:28;;;;;;;;;;;;;;;8.97;81.62;100787.56;4959225;28;19938;-73
2023/04/11 09:32:53;;;;;;;;;;;;;;;8.46;83.00;100781.84;4962182;28;20342;-73
2023/04/11 09:35:23;;;;;;;;;;;;;;;8.50;83.86;100781.34;4962943;28;19945;-72
2023/04/11 09:37:52;;;;;;;;;;;;;;;8.35;85.77;100782.84;4965001;28;19996;-72
2023/04/11 09:40:20;;;;;;;;;;;;;;;8.33;83.75;100784.09;4955564;28;19957;-73
2023/04/11 09:42:47;;;;;;;;;;;;;;;8.28;86.45;100806.22;4925422;28;19945;-73
2023/04/11 09:45:18;;;;;;;;;;;;;;;8.40;82.91;100784.72;4959305;28;20687;-73
2023/04/11 09:47:45;;;;;;;;;;;;;;;7.95;83.89;100785.88;4950191;28;19969;-73
2023/04/11 09:50:11;;;;;;;;;;;;;;;7.81;84.32;100796.13;4975816;28;19962;-72
2023/04/11 09:52:38;;;;;;;;;;;;;;;7.71;85.01;100796.00;4962401;28;19997;-73
2023/04/11 09:55:06;;;;;;;;;;;;;;;7.48;86.34;100791.75;4962813;28;20416;-73
2023/04/11 09:57:32;;;;;;;;;;;;;;;7.39;86.71;100787.91;4952890;28;19938;-73
2023/04/11 10:00:00;;;;;;;;;;;;;;;7.47;85.51;100797.31;4965610;28;20001;-73
2023/04/11 10:02:25;;;;;;;;;;;;;;;7.66;85.89;100802.09;4943568;28;20397;-73
2023/04/11 10:04:53;;;;;;;;;;;;;;;7.86;85.54;100792.72;4965107;28;19966;-72
2023/04/11 10:07:19;;;;;;;;;;;;;;;7.75;85.62;100786.47;4956765;28;19953;-72
2023/04/11 10:09:46;;;;;;;;;;;;;;;7.67;85.21;100789.56;4961226;28;19943;-74
2023/04/11 10:12:31;;;;;;;;;;;;;;;7.43;83.53;100781.00;4952598;28;20463;-73
2023/04/11 10:14:56;;;;;;;;;;;;;;;7.43;84.41;100797.00;4947101;28;19935;-72
2023/04/11 10:17:23;;;;;;;;;;;;;;;7.37;84.90;100790.78;4945650;28;21035;-72
2023/04/11 10:19:52;;;;;;;;;;;;;;;7.28;84.80;100796.81;4947036;28;19947;-73
2023/04/11 10:22:37;;;;;;;;;;;;;;;7.23;85.57;100804.72;4949373;28;19949;-71
2023/04/11 10:25:17;;;;;;;;;;;;;;;7.27;85.23;100800.53;4953855;28;19940;-71
2023/04/11 10:28:03;;;;;;;;;;;;;;;7.57;84.46;100821.41;4956065;28;19954;-72
2023/04/11 10:30:38;;;;;;;;;;;;;;;7.88;83.98;100827.94;4943831;28;20457;-73
2023/04/11 10:33:10;;;;;;;;;;;;;;;7.86;84.02;100830.84;4946984;28;20007;-71
2023/04/11 10:35:54;;;;;;;;;;;;;;;7.81;81.61;100830.78;4956874;28;19943;-71
2023/04/11 10:38:38;;;;;;;;;;;;;;;7.64;82.98;100840.69;4959783;28;19938;-73
2023/04/11 10:41:23;;;;;;;;;;;;;;;7.82;83.43;100836.94;4966507;28;19961;-73
2023/04/11 10:43:49;;;;;;;;;;;;;;;7.61;80.56;100835.88;4949551;28;20365;-72
2023/04/11 10:46:18;;;;;;;;;;;;;;;7.48;79.99;100841.56;4960225;28;19937;-72
2023/04/11 10:49:00;;;;;;;;;;;;;;;7.70;79.99;100846.91;4960156;28;20393;-72
2023/04/11 10:51:30;;;;;;;;;;;;;;;8.00;80.55;100863.28;4963414;28;20023;-72
2023/04/11 10:53:58;;;;;;;;;;;;;;;8.14;79.18;100853.03;4946095;28;19959;-73
2023/04/11 10:56:38;;;;;;;;;;;;;;;8.24;78.83;100858.47;4946140;28;19964;-72
2023/04/11 10:59:09;;;;;;;;;;;;;;;8.04;76.45;100863.56;4958952;28;20025;-73
2023/04/11 11:01:36;;;;;;;;;;;;;;;8.21;78.02;100869.66;4943326;28;19970;-71
2023/04/11 11:04:02;;;;;;;;;;;;;;;8.48;79.68;100869.69;4966352;28;20370;-72
2023/04/11 11:06:28;;;;;;;;;;;;;;;9.03;79.42;100860.53;4954601;28;19958;-72
2023/04/11 11:08:54;;;;;;;;;;;;;;;8.95;75.04;100861.03;4938087;28;19985;-73
2023/04/11 11:11:19;;;;;;;;;;;;;;;8.69;75.91;100866.16;4974968;28;20400;-71
2023/04/11 11:13:52;;;;;;;;;;;;;;;8.48;75.24;100878.50;4947207;28;20487;-72
2023/04/11 11:16:18;;;;;;;;;;;;;;;8.49;78.36;100873.97;4960253;28;20055;-71
2023/04/11 11:18:45;;;;;;;;;;;;;;;8.37;75.96;100890.13;4955373;28;20029;-73
2023/04/11 11:21:19;;;;;;;;;;;;;;;8.27;76.18;100891.84;5088297;27;20628;-72
2023/04/11 11:24:14;;;;;;;;;;;;;;;8.43;75.12;100899.00;5061754;28;20024;-72
2023/04/11 11:26:43;;;;;;;;;;;;;;;8.34;74.43;100893.28;5083531;28;20430;-72
2023/04/11 11:29:09;;;;;;;;;;;;;;;8.58;75.08;100895.66;5080130;28;19934;-71
2023/04/11 11:31:37;;;;;;;;;;;;;;;8.91;77.34;100903.44;5079946;28;20303;-71
2023/04/11 11:34:03;;;;;;;;;;;;;;;9.01;75.74;100906.22;5077658;28;19956;-70
2023/04/11 11:36:30;;;;;;;;;;;;;;;9.13;73.43;100906.03;5082077;28;20026;-72
2023/04/11 11:38:55;;;;;;;;;;;;;;;9.16;72.50;100923.44;5082873;28;19934;-71
2023/04/11 11:41:21;;;;;;;;;;;;;;;9.10;74.20;100929.78;5077575;28;19935;-71
2023/04/11 11:43:46;;;;;;;;;;;;;;;9.11;74.86;100928.72;5078028;28;19950;-72
2023/04/11 11:46:13;;;;;;;;;;;;;;;8.76;71.28;100938.03;5080903;28;19980;-73
2023/04/11 11:48:40;;;;;;;;;;;;;;;8.65;73.21;100917.63;5078654;28;19937;-72
2023/04/11 11:51:06;;;;;;;;;;;;;;;9.09;71.85;100917.50;5065117;28;19935;-71
2023/04/11 11:53:31;;;;;;;;;;;;;;;9.17;72.04;100938.41;5074881;28;19955;-72
2023/04/11 11:55:58;;;;;;;;;;;;;;;9.03;70.22;100930.00;5063780;28;20034;-71
2023/04/11 11:58:24;;;;;;;;;;;;;;;8.71;73.98;100932.63;5062878;28;20085;-70
2023/04/11 12:00:50;;;;;;;;;;;;;;;8.60;73.50;100945.09;5063625;28;19962;-69
2023/04/11 12:03:17;;;;;;;;;;;;;;;8.65;73.92;100955.00;5080356;28;19952;-70
2023/04/11 12:05:43;;;;;;;;;;;;;;;8.65;72.47;100955.00;5064202;28;19949;-71
2023/04/11 12:08:09;;;;;;;;;;;;;;;8.47;72.30;100964.97;5054546;28;20296;-70
2023/04/11 12:10:41;;;;;;;;;;;;;;;8.52;75.12;100977.56;5085903;28;20041;-71
2023/04/11 12:13:15;;;;;;;;;;;;;;;8.40;74.38;100968.88;5068110;28;20057;-70
2023/04/11 12:15:43;;;;;;;;;;;;;;;8.50;77.05;100976.19;5085120;28;19940;-71
2023/04/11 12:18:08;;;;;;;;;;;;;;;8.57;73.27;100982.16;5078569;28;19932;-70
2023/04/11 12:20:34;;;;;;;;;;;;;;;8.52;73.50;100982.09;5048640;28;19970;-71
2023/04/11 12:23:00;;;;;;;;;;;;;;;8.49;74.79;100983.41;5059762;28;20338;-71
2023/04/11 12:25:26;;;;;;;;;;;;;;;8.87;74.10;100973.63;5077119;28;20022;-72
2023/04/11 12:27:51;;;;;;;;;;;;;;;9.51;73.04;100990.50;5064152;28;19935;-75
2023/04/11 12:30:17;;;;;;;;;;;;;;;10.19;67.46;100974.59;5075462;28;19945;-70
2023/04/11 12:32:43;;;;;;;;;;;;;;;10.76;64.40;100975.59;5034623;28;19941;-71
2023/04/11 12:35:09;;;;;;;;;;;;;;;11.69;65.54;100981.53;5043216;28;20050;-72
2023/04/11 12:37:35;;;;;;;;;;;;;;;11.34;64.37;100982.38;5070138;28;20448;-72
2023/04/11 12:40:05;;;;;;;;;;;;;;;11.21;65.53;100990.94;5065822;28;19957;-71
2023/04/11 12:42:31;;;;;;;;;;;;;;;10.77;65.64;100985.25;5067230;28;20072;-72
2023/04/11 12:44:57;;;;;;;;;;;;;;;11.01;65.14;100997.09;5039048;28;20376;-72
2023/04/11 12:47:22;;;;;;;;;;;;;;;11.21;65.47;100990.94;5060609;28;19944;-72